Time;durP1;ratioP1;P1;durP2;ratioP2;P2;SDS_P1;SDS_P2;PMS_P1;PMS_P2;Temp;Humidity;BMP_temperature;BMP_pressure;BME280_temperature;BME280_humidity;BME280_pressure;Samples;Min_cycle;Max_cycle;Signal;HPM_P1;HPM_P2
2022/10/31 00:01:54;;;;;;;4.13;2.92;;;;;;;15.54;41.98;95379.63;5028802;28;20210;-70
2022/10/31 00:04:20;;;;;;;5.55;3.80;;;;;;;15.47;42.10;95387.41;5029295;28;20300;-71
2022/10/31 00:06:45;;;;;;;4.60;3.00;;;;;;;15.50;42.22;95379.13;5029368;28;20209;-71
2022/10/31 00:09:11;;;;;;;6.15;3.38;;;;;;;15.46;42.10;95375.19;5026970;28;20202;-71
2022/10/31 00:11:36;;;;;;;3.80;3.22;;;;;;;15.41;42.49;95381.00;5026641;28;20178;-70
2022/10/31 00:14:02;;;;;;;5.68;3.88;;;;;;;15.37;42.82;95378.84;5026665;28;20197;-70
2022/10/31 00:16:29;;;;;;;4.40;3.30;;;;;;;15.39;42.74;95377.69;5009424;28;20190;-71
2022/10/31 00:18:57;;;;;;;6.68;3.42;;;;;;;15.38;42.74;95370.75;5029755;28;20218;-71
2022/10/31 00:21:24;;;;;;;5.00;4.00;;;;;;;15.43;42.92;95367.56;5024770;28;20614;-71
2022/10/31 00:23:49;;;;;;;4.72;3.45;;;;;;;15.37;43.21;95377.06;5025829;28;20182;-71
2022/10/31 00:26:15;;;;;;;4.13;3.63;;;;;;;15.33;42.97;95378.38;5022596;28;20859;-71
2022/10/31 00:28:41;;;;;;;6.00;3.40;;;;;;;15.34;43.28;95371.25;5011928;28;20194;-71
2022/10/31 00:31:08;;;;;;;5.07;3.38;;;;;;;15.34;43.09;95377.41;5027435;28;20887;-71
2022/10/31 00:33:37;;;;;;;4.88;3.17;;;;;;;15.28;43.13;95385.19;5033327;28;20240;-70
2022/10/31 00:36:04;;;;;;;6.25;3.55;;;;;;;15.30;43.45;95376.06;5028532;28;20715;-71
2022/10/31 00:38:29;;;;;;;4.20;3.33;;;;;;;15.24;43.46;95382.06;5033166;28;20309;-71
2022/10/31 00:40:55;;;;;;;4.35;3.08;;;;;;;15.29;43.03;95376.22;5032812;28;20210;-71
2022/10/31 00:43:20;;;;;;;5.85;3.42;;;;;;;15.34;43.46;95377.41;5039673;28;20246;-70
2022/10/31 00:45:46;;;;;;;4.55;3.50;;;;;;;15.28;43.47;95374.59;5032514;28;20214;-70
2022/10/31 00:48:12;;;;;;;4.50;3.67;;;;;;;15.29;43.55;95368.28;5031665;28;20197;-69
2022/10/31 00:50:38;;;;;;;5.00;3.50;;;;;;;15.28;43.43;95370.13;5032380;28;20186;-70
2022/10/31 00:53:03;;;;;;;6.72;3.45;;;;;;;15.21;43.86;95370.00;5031717;28;20206;-70
2022/10/31 00:55:29;;;;;;;4.40;3.33;;;;;;;15.18;43.93;95373.00;5031006;28;20882;-70
2022/10/31 00:57:54;;;;;;;4.95;3.30;;;;;;;15.11;44.05;95377.31;5032622;28;21614;-71
2022/10/31 01:00:20;;;;;;;3.45;3.08;;;;;;;15.20;43.65;95386.03;5028178;28;20198;-70
2022/10/31 01:02:45;;;;;;;5.63;3.25;;;;;;;15.16;43.74;95367.03;5031151;28;20269;-70
2022/10/31 01:05:12;;;;;;;3.53;2.88;;;;;;;15.18;44.07;95374.78;5030747;28;20182;-70
2022/10/31 01:07:40;;;;;;;5.28;3.40;;;;;;;15.13;43.97;95367.38;5032831;28;20197;-70
2022/10/31 01:10:06;;;;;;;5.57;3.63;;;;;;;15.12;44.49;95376.31;5027967;28;20187;-70
2022/10/31 01:12:44;;;;;;;5.05;3.33;;;;;;;15.02;44.58;95375.66;5032722;28;20192;-70
2022/10/31 01:15:12;;;;;;;6.22;3.40;;;;;;;15.09;44.23;95381.94;5029245;28;20273;-70
2022/10/31 01:17:37;;;;;;;5.05;3.55;;;;;;;15.07;44.29;95383.09;5032478;28;20186;-70
2022/10/31 01:20:05;;;;;;;4.75;3.60;;;;;;;15.02;44.61;95390.72;5031234;28;21358;-70
2022/10/31 01:22:31;;;;;;;5.03;3.78;;;;;;;14.96;44.74;95395.72;5032482;28;20213;-70
2022/10/31 01:24:56;;;;;;;4.93;3.63;;;;;;;14.81;45.31;95389.47;5028777;28;20221;-70
2022/10/31 01:27:22;;;;;;;3.75;3.38;;;;;;;14.85;45.26;95390.78;5032210;28;20198;-69
2022/10/31 01:29:47;;;;;;;3.88;3.47;;;;;;;14.92;44.90;95391.75;5032161;28;20186;-69
2022/10/31 01:32:13;;;;;;;4.72;3.45;;;;;;;15.03;44.82;95401.16;5030440;28;20194;-69
2022/10/31 01:34:38;;;;;;;5.53;3.47;;;;;;;15.08;44.68;95396.19;5029768;28;20257;-68
2022/10/31 01:37:03;;;;;;;5.68;3.30;;;;;;;15.06;44.78;95405.31;5030152;28;20621;-69
2022/10/31 01:39:29;;;;;;;6.13;3.63;;;;;;;14.94;45.19;95400.38;5029666;28;20297;-68
2022/10/31 01:41:54;;;;;;;7.38;4.47;;;;;;;15.05;45.00;95395.69;5027282;28;20257;-68
2022/10/31 01:44:20;;;;;;;6.38;4.63;;;;;;;14.98;45.31;95399.03;5023293;28;20253;-68
2022/10/31 01:47:00;;;;;;;7.20;5.13;;;;;;;15.01;45.05;95408.44;5029005;28;20197;-70
2022/10/31 01:49:36;;;;;;;6.22;5.30;;;;;;;14.74;45.91;95401.72;5026816;28;20201;-70
2022/10/31 01:52:19;;;;;;;5.88;5.28;;;;;;;14.73;45.98;95408.03;5027349;28;20228;-68
2022/10/31 01:54:53;;;;;;;6.82;5.70;;;;;;;14.73;45.99;95406.19;5030224;28;20208;-68
2022/10/31 01:57:21;;;;;;;8.80;7.18;;;;;;;14.76;45.74;95415.63;5030542;28;20194;-68
2022/10/31 01:59:49;;;;;;;9.02;6.43;;;;;;;14.47;46.16;95398.41;5024105;28;20214;-68
2022/10/31 02:02:17;;;;;;;7.53;6.63;;;;;;;14.45;46.43;95395.09;5029971;28;20673;-68
2022/10/31 02:04:43;;;;;;;8.23;6.38;;;;;;;14.44;46.43;95388.16;5028692;28;20190;-68
2022/10/31 02:07:24;;;;;;;9.68;6.85;;;;;;;14.43;46.70;95391.78;5031724;28;20542;-68
2022/10/31 02:09:51;;;;;;;8.65;6.30;;;;;;;14.47;46.72;95390.47;5024729;28;20607;-69
2022/10/31 02:12:17;;;;;;;7.72;6.20;;;;;;;14.45;46.89;95389.00;5030577;28;20285;-68
2022/10/31 02:14:43;;;;;;;8.80;5.68;;;;;;;14.34;47.09;95383.03;5027761;28;20606;-68
2022/10/31 02:17:08;;;;;;;7.80;6.50;;;;;;;14.31;47.51;95380.72;5024743;28;20190;-68
2022/10/31 02:19:46;;;;;;;7.45;6.55;;;;;;;14.45;47.07;95383.69;5027183;28;20582;-69
2022/10/31 02:22:31;;;;;;;8.48;6.10;;;;;;;14.45;46.93;95389.00;5029580;28;20188;-69
2022/10/31 02:25:16;;;;;;;10.60;6.32;;;;;;;14.46;46.83;95394.13;5027195;28;20189;-69
2022/10/31 02:28:18;;;;;;;8.73;6.75;;;;;;;14.47;46.87;95403.69;5026807;28;20613;-69
2022/10/31 02:30:53;;;;;;;7.95;6.32;;;;;;;14.38;47.30;95402.06;5027338;28;20197;-69
2022/10/31 02:33:48;;;;;;;8.48;6.47;;;;;;;14.32;47.59;95408.00;5025913;28;20193;-69
2022/10/31 02:36:56;;;;;;;7.70;6.45;;;;;;;14.39;47.49;95411.66;5029540;28;20676;-69
2022/10/31 02:39:26;;;;;;;7.85;6.75;;;;;;;14.32;47.57;95413.28;4932034;29;20221;-69
2022/10/31 02:42:16;;;;;;;9.82;6.35;;;;;;;14.29;47.72;95424.19;4934706;29;20267;-69
2022/10/31 02:44:55;;;;;;;7.10;6.18;;;;;;;14.31;47.75;95424.88;4935644;29;20423;-69
2022/10/31 02:47:28;;;;;;;9.48;6.85;;;;;;;14.17;48.17;95422.88;4931748;29;20292;-68
2022/10/31 02:50:21;;;;;;;8.07;6.57;;;;;;;14.20;48.00;95430.50;4935505;29;20185;-69
2022/10/31 02:52:51;;;;;;;7.13;6.28;;;;;;;14.21;48.18;95426.84;4950585;28;20209;-69
2022/10/31 02:55:26;;;;;;;8.88;6.80;;;;;;;14.02;48.55;95420.03;4934231;29;20327;-69
2022/10/31 02:57:56;;;;;;;8.68;6.95;;;;;;;14.00;48.79;95427.31;4934830;29;20192;-69
2022/10/31 03:00:22;;;;;;;9.40;6.95;;;;;;;13.98;48.97;95430.13;4934947;29;20281;-69
2022/10/31 03:03:14;;;;;;;7.90;6.50;;;;;;;14.00;48.96;95427.31;4935084;29;20807;-69
2022/10/31 03:05:40;;;;;;;8.55;7.05;;;;;;;13.80;49.33;95422.31;4933224;29;20193;-69
2022/10/31 03:08:20;;;;;;;7.78;6.88;;;;;;;13.68;49.99;95431.53;4934184;29;20263;-69
2022/10/31 03:11:07;;;;;;;10.82;7.15;;;;;;;13.77;49.67;95432.41;4935259;29;20188;-69
2022/10/31 03:13:50;;;;;;;9.50;6.85;;;;;;;13.70;50.02;95429.56;4990236;28;20211;-69
2022/10/31 03:16:18;;;;;;;12.98;6.93;;;;;;;13.88;49.39;95424.97;5028513;28;20202;-69
2022/10/31 03:19:02;;;;;;;7.40;6.65;;;;;;;13.85;49.51;95419.19;5026116;28;20216;-69
2022/10/31 03:21:32;;;;;;;8.07;6.35;;;;;;;13.71;49.66;95422.44;5042725;28;20233;-70
2022/10/31 03:24:00;;;;;;;7.40;6.65;;;;;;;13.65;49.86;95424.75;5013614;28;20197;-69
2022/10/31 03:26:26;;;;;;;8.98;6.30;;;;;;;13.71;49.97;95425.09;5027995;28;20225;-69
2022/10/31 03:29:02;;;;;;;9.35;6.57;;;;;;;13.68;49.99;95428.88;5029626;28;20185;-69
2022/10/31 03:31:44;;;;;;;7.57;6.30;;;;;;;13.67;50.00;95433.34;5019622;28;20183;-69
2022/10/31 03:34:10;;;;;;;9.43;6.25;;;;;;;13.70;50.02;95434.03;5027816;28;20193;-69
2022/10/31 03:36:39;;;;;;;8.82;6.57;;;;;;;13.75;50.09;95439.66;5023476;28;20190;-69
2022/10/31 03:39:07;;;;;;;9.23;6.35;;;;;;;13.79;49.93;95436.53;5023193;28;20501;-69
2022/10/31 03:41:38;;;;;;;7.47;6.18;;;;;;;13.91;49.42;95444.97;5027426;28;20247;-72
2022/10/31 03:44:13;;;;;;;8.63;6.40;;;;;;;13.82;49.57;95425.63;5025494;28;20194;-70
2022/10/31 03:46:40;;;;;;;9.27;6.28;;;;;;;13.83;49.92;95444.97;5021896;28;20194;-70
2022/10/31 03:49:05;;;;;;;9.00;5.82;;;;;;;13.80;50.21;95446.09;5029331;28;20193;-69
2022/10/31 03:51:54;;;;;;;9.82;6.38;;;;;;;13.76;50.29;95451.88;5028619;28;20190;-69
2022/10/31 03:54:41;;;;;;;9.02;6.25;;;;;;;13.66;50.66;95449.38;5027211;28;20206;-69
2022/10/31 03:57:29;;;;;;;10.48;6.88;;;;;;;13.67;50.70;95449.19;5027200;28;20190;-69
2022/10/31 04:00:11;;;;;;;8.18;6.88;;;;;;;13.58;51.16;95444.03;5023461;28;20190;-69
2022/10/31 04:02:42;;;;;;;15.02;7.65;;;;;;;13.48;51.15;95454.75;5027142;28;20722;-69
2022/10/31 04:05:10;;;;;;;14.20;6.90;;;;;;;13.51;51.06;95459.72;5030671;28;20190;-69
2022/10/31 04:07:43;;;;;;;11.05;6.47;;;;;;;13.47;51.11;95461.00;5029626;28;20198;-69
2022/10/31 04:10:13;;;;;;;16.27;6.65;;;;;;;13.37;51.46;95462.97;5027858;28;20263;-67
2022/10/31 04:12:41;;;;;;;9.45;6.90;;;;;;;13.32;51.70;95467.88;5027921;28;20198;-69
2022/10/31 04:15:09;;;;;;;11.50;6.65;;;;;;;13.34;51.74;95463.25;5033159;28;20197;-68
2022/10/31 04:17:40;;;;;;;9.00;6.85;;;;;;;13.29;51.95;95471.66;5033682;28;20193;-67
2022/10/31 04:20:06;;;;;;;12.57;7.57;;;;;;;13.23;51.93;95473.09;5041493;28;20772;-69
2022/10/31 04:22:31;;;;;;;11.50;7.63;;;;;;;13.25;52.02;95478.22;5030293;28;20187;-67
2022/10/31 04:24:57;;;;;;;12.40;7.13;;;;;;;13.36;51.91;95461.28;5016940;28;20225;-70
2022/10/31 04:27:22;;;;;;;11.98;7.65;;;;;;;13.40;51.91;95474.03;5031870;28;20186;-71
2022/10/31 04:29:48;;;;;;;10.48;7.15;;;;;;;13.52;51.59;95471.09;5032352;28;20244;-69
2022/10/31 04:32:13;;;;;;;11.90;7.07;;;;;;;13.33;51.94;95482.75;5025853;28;20190;-68
2022/10/31 04:34:39;;;;;;;9.70;6.78;;;;;;;13.36;51.85;95471.84;5032598;28;20198;-69
2022/10/31 04:37:04;;;;;;;8.95;7.00;;;;;;;13.46;51.52;95472.56;5032931;28;20224;-69
2022/10/31 04:39:29;;;;;;;10.27;7.10;;;;;;;13.48;51.65;95470.59;5030071;28;20194;-69
2022/10/31 04:41:55;;;;;;;8.85;7.35;;;;;;;13.46;51.50;95478.66;5026373;28;20226;-69
2022/10/31 04:44:20;;;;;;;8.60;6.47;;;;;;;13.44;51.66;95485.09;5031361;28;20209;-69
2022/10/31 04:46:46;;;;;;;10.13;6.72;;;;;;;13.47;51.50;95471.56;5032038;28;20304;-69
2022/10/31 04:49:11;;;;;;;8.82;6.78;;;;;;;13.49;51.35;95474.06;5029228;28;20189;-68
2022/10/31 04:51:37;;;;;;;8.40;6.85;;;;;;;13.50;51.55;95484.50;5032536;28;20194;-69
2022/10/31 04:54:03;;;;;;;9.25;6.65;;;;;;;13.28;52.13;95491.13;5041799;28;20676;-69
2022/10/31 04:56:28;;;;;;;8.80;6.72;;;;;;;13.33;52.37;95488.03;5031114;28;20200;-69
2022/10/31 04:58:53;;;;;;;8.35;6.45;;;;;;;13.33;52.35;95494.13;5033008;28;20193;-69
2022/10/31 05:01:19;;;;;;;8.57;6.70;;;;;;;13.34;52.07;95489.66;5030374;28;20214;-67
2022/10/31 05:03:44;;;;;;;10.63;6.78;;;;;;;13.48;51.79;95493.56;5028092;28;20190;-67
2022/10/31 05:06:10;;;;;;;10.85;6.95;;;;;;;13.47;52.02;95495.34;5032360;28;20300;-67
2022/10/31 05:08:35;;;;;;;11.30;7.15;;;;;;;13.45;52.18;95492.06;5031576;28;20530;-67
2022/10/31 05:11:06;;;;;;;9.85;7.03;;;;;;;13.50;51.89;95502.97;5030078;28;20186;-67
2022/10/31 05:13:32;;;;;;;12.48;7.03;;;;;;;13.48;51.77;95501.47;5032402;28;20645;-67
2022/10/31 05:15:57;;;;;;;7.72;6.38;;;;;;;13.55;52.11;95494.56;5024537;28;20216;-67
2022/10/31 05:18:23;;;;;;;9.40;7.40;;;;;;;13.53;52.12;95505.31;5029408;28;20697;-67
2022/10/31 05:20:48;;;;;;;10.38;7.85;;;;;;;13.55;51.70;95505.97;5030338;28;20297;-68
2022/10/31 05:23:14;;;;;;;16.20;8.90;;;;;;;13.58;51.76;95507.44;5027818;28;20213;-68
2022/10/31 05:25:40;;;;;;;11.25;8.07;;;;;;;13.64;51.84;95518.22;5031944;28;20251;-68
2022/10/31 05:28:05;;;;;;;11.68;7.20;;;;;;;13.64;51.99;95517.41;5027571;28;20692;-68
2022/10/31 05:30:31;;;;;;;13.65;8.13;;;;;;;13.42;52.54;95518.78;5031420;28;20194;-68
2022/10/31 05:32:57;;;;;;;9.82;7.45;;;;;;;13.33;53.05;95519.72;5029127;28;20186;-69
2022/10/31 05:35:29;;;;;;;10.13;7.18;;;;;;;13.32;52.86;95524.19;5029614;28;20187;-68
2022/10/31 05:37:54;;;;;;;15.05;8.23;;;;;;;13.25;53.15;95521.28;5030148;28;20183;-68
2022/10/31 05:40:21;;;;;;;12.70;8.25;;;;;;;13.19;53.49;95519.28;5025415;28;20234;-68
2022/10/31 05:42:47;;;;;;;18.98;9.20;;;;;;;13.23;53.45;95518.00;5029711;28;20222;-67
2022/10/31 05:45:15;;;;;;;12.55;8.50;;;;;;;13.20;53.43;95526.22;5028576;28;20697;-67
2022/10/31 05:47:41;;;;;;;17.58;8.40;;;;;;;13.14;54.00;95526.81;5027810;28;20210;-67
2022/10/31 05:50:08;;;;;;;13.27;9.25;;;;;;;13.11;54.28;95524.50;5026414;28;20358;-67
2022/10/31 05:52:34;;;;;;;14.63;9.35;;;;;;;13.06;54.38;95528.59;5026842;28;20212;-67
2022/10/31 05:54:59;;;;;;;13.63;9.55;;;;;;;13.12;54.29;95526.16;5028334;28;20720;-67
2022/10/31 05:57:25;;;;;;;16.80;9.80;;;;;;;13.14;54.13;95521.53;5029490;28;20194;-67
2022/10/31 05:59:53;;;;;;;19.65;9.57;;;;;;;13.11;54.54;95535.06;5026343;28;20182;-68
2022/10/31 06:02:19;;;;;;;14.60;9.70;;;;;;;13.21;53.97;95535.78;5025823;28;20217;-68
2022/10/31 06:04:45;;;;;;;17.13;10.57;;;;;;;13.28;54.08;95540.47;5024184;28;20231;-68
2022/10/31 06:07:10;;;;;;;18.60;10.07;;;;;;;13.22;54.35;95545.38;5023171;28;20206;-69
2022/10/31 06:09:36;;;;;;;13.05;10.00;;;;;;;13.36;53.91;95556.38;5028738;28;20193;-67
2022/10/31 06:12:01;;;;;;;13.63;10.00;;;;;;;13.39;53.66;95542.84;5028096;28;20673;-66
2022/10/31 06:14:26;;;;;;;18.92;10.55;;;;;;;13.45;53.25;95552.81;5029268;28;20190;-66
2022/10/31 06:16:53;;;;;;;20.17;10.95;;;;;;;13.49;53.19;95551.50;5029107;28;20182;-66
2022/10/31 06:19:18;;;;;;;16.40;10.93;;;;;;;13.69;52.81;95552.13;5026473;28;20186;-66
2022/10/31 06:21:44;;;;;;;16.85;11.15;;;;;;;13.69;52.76;95554.75;5027902;28;20207;-67
2022/10/31 06:24:09;;;;;;;14.40;9.80;;;;;;;13.63;53.11;95558.88;5027258;28;20277;-68
2022/10/31 06:26:35;;;;;;;11.98;10.75;;;;;;;13.40;54.02;95571.75;5027947;28;20973;-66
2022/10/31 06:29:00;;;;;;;21.30;11.57;;;;;;;13.82;52.77;95572.81;5027859;28;20193;-66
2022/10/31 06:31:26;;;;;;;12.82;10.50;;;;;;;13.97;52.39;95579.16;5028177;28;20645;-67
2022/10/31 06:33:51;;;;;;;16.55;11.10;;;;;;;13.85;52.80;95578.63;5029139;28;20224;-74
2022/10/31 06:36:16;;;;;;;14.00;10.55;;;;;;;13.94;52.42;95581.31;5024787;28;20191;-66
2022/10/31 06:38:42;;;;;;;13.38;10.27;;;;;;;13.89;52.75;95584.41;5028219;28;20190;-66
2022/10/31 06:41:08;;;;;;;13.30;11.05;;;;;;;13.74;53.24;95575.41;5022214;28;20281;-67
2022/10/31 06:43:34;;;;;;;14.27;10.13;;;;;;;13.69;54.17;95581.19;5027398;28;20648;-68
2022/10/31 06:46:04;;;;;;;13.75;10.52;;;;;;;13.85;53.60;95588.38;5029401;28;20220;-68
2022/10/31 06:48:29;;;;;;;13.82;10.48;;;;;;;13.62;54.33;95580.16;5025169;28;20207;-68
2022/10/31 06:50:59;;;;;;;13.05;10.68;;;;;;;14.05;52.41;95583.66;5026641;28;20654;-70
2022/10/31 06:53:25;;;;;;;17.90;11.82;;;;;;;14.19;52.12;95580.41;5025302;28;20192;-70
2022/10/31 06:55:51;;;;;;;15.38;11.02;;;;;;;14.12;52.40;95582.03;5025199;28;20186;-69
2022/10/31 06:58:16;;;;;;;13.43;11.25;;;;;;;14.30;51.75;95585.41;5026004;28;20189;-66
2022/10/31 07:00:42;;;;;;;12.27;10.98;;;;;;;14.27;51.64;95577.81;5029802;28;20289;-67
2022/10/31 07:03:11;;;;;;;17.33;12.70;;;;;;;14.35;52.07;95579.63;5026765;28;20190;-66
2022/10/31 07:05:37;;;;;;;15.55;11.35;;;;;;;14.36;52.25;95586.59;5028699;28;20190;-68
2022/10/31 07:08:06;;;;;;;11.98;10.70;;;;;;;14.54;51.75;95583.81;5023251;28;20191;-66
2022/10/31 07:10:35;;;;;;;16.33;12.10;;;;;;;14.57;51.58;95583.53;5027141;28;20193;-68
2022/10/31 07:13:03;;;;;;;14.85;12.02;;;;;;;14.60;51.58;95577.09;5022699;28;20244;-68
2022/10/31 07:15:33;;;;;;;17.27;11.70;;;;;;;14.68;51.48;95577.09;5024474;28;20183;-69
2022/10/31 07:18:06;;;;;;;17.48;12.57;;;;;;;14.66;51.46;95581.72;5028644;28;20264;-69
2022/10/31 07:20:32;;;;;;;13.85;12.40;;;;;;;14.77;50.83;95573.44;5026747;28;20238;-69
2022/10/31 07:22:58;;;;;;;16.45;12.25;;;;;;;14.82;50.83;95572.97;5028722;28;20280;-68
2022/10/31 07:25:24;;;;;;;16.98;13.48;;;;;;;14.85;50.67;95565.53;5028463;28;20182;-68
2022/10/31 07:27:50;;;;;;;16.10;13.02;;;;;;;14.99;50.34;95556.94;5026356;28;20214;-68
2022/10/31 07:30:18;;;;;;;17.40;12.43;;;;;;;15.03;50.39;95561.91;5029774;28;20278;-67
2022/10/31 07:32:45;;;;;;;15.63;13.05;;;;;;;15.14;50.19;95561.56;5027772;28;20194;-68
2022/10/31 07:35:16;;;;;;;15.57;12.68;;;;;;;15.21;50.21;95565.19;5027063;28;20595;-68
2022/10/31 07:37:41;;;;;;;14.82;12.95;;;;;;;15.22;50.03;95558.91;5018685;28;20546;-67
2022/10/31 07:40:08;;;;;;;17.08;12.88;;;;;;;15.41;49.82;95565.66;5025895;28;20708;-68
2022/10/31 07:42:44;;;;;;;15.88;12.93;;;;;;;15.46;49.90;95562.50;5023802;28;20591;-68
2022/10/31 07:45:12;;;;;;;15.40;12.65;;;;;;;15.40;49.98;95562.19;5024263;28;20956;-69
2022/10/31 07:47:57;;;;;;;13.15;11.75;;;;;;;15.53;49.90;95566.13;5029873;28;20253;-67
2022/10/31 07:50:26;;;;;;;13.95;11.55;;;;;;;15.48;49.84;95564.00;5026572;28;20209;-67
2022/10/31 07:53:02;;;;;;;19.15;12.20;;;;;;;15.46;49.97;95563.34;5026254;28;20291;-66
2022/10/31 07:55:28;;;;;;;14.52;13.02;;;;;;;15.52;49.89;95567.13;5027637;28;20190;-68
2022/10/31 07:58:03;;;;;;;15.75;11.68;;;;;;;15.71;49.04;95572.09;5030660;28;20193;-70
2022/10/31 08:00:29;;;;;;;15.05;12.88;;;;;;;15.84;48.60;95567.06;5026106;28;20229;-68
2022/10/31 08:03:00;;;;;;;13.73;12.32;;;;;;;15.79;49.04;95568.59;5027608;28;20721;-68
2022/10/31 08:05:25;;;;;;;16.15;12.23;;;;;;;15.93;48.85;95573.19;5027558;28;20304;-66
2022/10/31 08:07:51;;;;;;;15.50;12.18;;;;;;;15.99;48.59;95566.38;5026138;28;20263;-67
2022/10/31 08:10:16;;;;;;;14.43;12.20;;;;;;;15.96;48.60;95569.34;5026624;28;20188;-67
2022/10/31 08:12:41;;;;;;;16.48;12.32;;;;;;;16.18;48.20;95565.13;5028346;28;20272;-70
2022/10/31 08:15:08;;;;;;;15.07;11.45;;;;;;;16.09;48.25;95565.19;5025355;28;20194;-70
2022/10/31 08:17:36;;;;;;;13.50;11.82;;;;;;;16.17;47.94;95566.13;5026053;28;20222;-70
2022/10/31 08:20:03;;;;;;;18.27;12.60;;;;;;;16.23;47.79;95558.31;5026737;28;20195;-70
2022/10/31 08:22:29;;;;;;;13.75;11.95;;;;;;;16.33;47.46;95566.03;5025498;28;20182;-71
2022/10/31 08:24:54;;;;;;;15.25;13.18;;;;;;;16.28;48.05;95569.22;5028392;28;20236;-71
2022/10/31 08:27:20;;;;;;;13.18;11.93;;;;;;;16.35;47.85;95574.66;5026865;28;20186;-72
2022/10/31 08:29:45;;;;;;;14.77;12.38;;;;;;;16.41;47.60;95562.50;5029337;28;20601;-72
2022/10/31 08:32:10;;;;;;;13.77;11.60;;;;;;;16.50;47.54;95564.97;5027570;28;20196;-70
2022/10/31 08:34:36;;;;;;;15.30;12.13;;;;;;;16.62;47.19;95564.56;5028992;28;20186;-71
2022/10/31 08:37:01;;;;;;;14.88;12.13;;;;;;;16.75;47.05;95555.00;5029335;28;20645;-71
2022/10/31 08:39:26;;;;;;;13.77;11.77;;;;;;;16.73;46.84;95548.22;5029198;28;20197;-73
2022/10/31 08:41:52;;;;;;;16.50;11.25;;;;;;;16.85;46.83;95560.13;5026485;28;20289;-71
2022/10/31 08:44:18;;;;;;;17.60;12.10;;;;;;;17.09;46.29;95551.13;5028055;28;20797;-70
2022/10/31 08:46:44;;;;;;;16.30;12.07;;;;;;;17.04;45.80;95555.34;5020743;28;20215;-71
2022/10/31 08:49:09;;;;;;;14.07;12.38;;;;;;;17.03;46.11;95559.00;5021797;28;20179;-72
2022/10/31 08:51:35;;;;;;;15.10;10.95;;;;;;;17.08;45.94;95546.84;5028915;28;20197;-70
2022/10/31 08:54:00;;;;;;;14.18;11.02;;;;;;;17.37;45.60;95561.19;5028998;28;20653;-70
2022/10/31 08:56:25;;;;;;;13.95;10.95;;;;;;;17.41;45.49;95557.16;5025113;28;20294;-71
2022/10/31 08:58:53;;;;;;;13.85;10.88;;;;;;;17.49;45.12;95556.25;5030375;28;20183;-72
2022/10/31 09:01:18;;;;;;;15.73;11.35;;;;;;;17.64;44.66;95557.09;5029119;28;20232;-71
2022/10/31 09:03:44;;;;;;;12.45;10.05;;;;;;;17.69;44.62;95561.88;5024528;28;20585;-72
2022/10/31 09:06:09;;;;;;;14.57;11.00;;;;;;;17.80;44.63;95558.78;5024521;28;20178;-72
2022/10/31 09:08:35;;;;;;;13.65;11.07;;;;;;;17.91;44.09;95555.69;5024580;28;20934;-73
2022/10/31 09:11:02;;;;;;;13.13;10.43;;;;;;;18.06;44.08;95553.00;5023619;28;20304;-70
2022/10/31 09:13:27;;;;;;;14.05;10.38;;;;;;;18.21;43.36;95551.16;5029812;28;20218;-71
2022/10/31 09:15:53;;;;;;;16.23;10.30;;;;;;;18.19;43.23;95549.69;5030975;28;20197;-72
2022/10/31 09:18:21;;;;;;;17.65;10.95;;;;;;;18.20;43.43;95546.84;5032513;28;20187;-70
2022/10/31 09:20:48;;;;;;;12.82;11.18;;;;;;;18.26;43.11;95553.25;5028718;28;20489;-72
2022/10/31 09:23:16;;;;;;;19.00;10.50;;;;;;;18.28;43.68;95545.91;5030345;28;20779;-72
2022/10/31 09:25:42;;;;;;;12.00;10.40;;;;;;;18.38;43.73;95543.75;5031256;28;20190;-72
2022/10/31 09:28:11;;;;;;;14.20;10.30;;;;;;;18.61;42.65;95546.28;5029947;28;20182;-71
2022/10/31 09:30:37;;;;;;;15.38;10.35;;;;;;;18.69;42.94;95546.16;5031422;28;20232;-70
2022/10/31 09:33:12;;;;;;;15.27;10.07;;;;;;;18.91;42.09;95547.03;5030362;28;20205;-70
2022/10/31 09:35:39;;;;;;;12.68;10.23;;;;;;;18.85;42.02;95533.66;5028998;28;20178;-72
2022/10/31 09:38:09;;;;;;;16.40;10.55;;;;;;;18.94;41.89;95546.63;5031251;28;20228;-72
2022/10/31 09:40:40;;;;;;;14.75;10.77;;;;;;;19.09;41.47;95545.75;5030706;28;20225;-72
2022/10/31 09:43:18;;;;;;;10.57;9.40;;;;;;;19.22;41.46;95553.03;5026980;28;20613;-71
2022/10/31 09:45:43;;;;;;;12.32;9.65;;;;;;;19.26;41.34;95544.47;5030345;28;20194;-71
2022/10/31 09:48:39;;;;;;;15.05;9.48;;;;;;;19.41;41.14;95546.22;5030078;28;20194;-69
2022/10/31 09:51:30;;;;;;;13.40;9.35;;;;;;;19.45;40.49;95536.81;5030503;28;20201;-71
2022/10/31 09:54:18;;;;;;;9.02;8.13;;;;;;;19.60;40.65;95537.53;5025533;28;20214;-72
2022/10/31 09:56:44;;;;;;;10.68;7.97;;;;;;;19.78;40.19;95535.22;5026993;28;20273;-72
2022/10/31 09:59:31;;;;;;;10.98;8.07;;;;;;;19.95;39.98;95538.41;5030720;28;20210;-71
2022/10/31 10:02:00;;;;;;;12.13;8.77;;;;;;;20.01;40.15;95534.09;5027219;28;20211;-71
2022/10/31 10:04:49;;;;;;;13.75;8.07;;;;;;;20.13;39.33;95532.53;5030225;28;20202;-71
2022/10/31 10:07:19;;;;;;;10.88;8.18;;;;;;;20.26;39.14;95527.25;5027414;28;20183;-72
2022/10/31 10:09:45;;;;;;;14.68;8.30;;;;;;;20.30;38.82;95521.50;5029718;28;20221;-73
2022/10/31 10:12:33;;;;;;;9.75;7.57;;;;;;;20.35;39.22;95519.88;5026173;28;20183;-72
2022/10/31 10:15:32;;;;;;;12.73;8.18;;;;;;;20.57;38.97;95515.25;5024682;28;20190;-71
2022/10/31 10:18:16;;;;;;;9.68;8.13;;;;;;;20.76;38.28;95510.16;5027908;28;20186;-71
2022/10/31 10:21:08;;;;;;;12.13;7.72;;;;;;;20.81;38.35;95499.69;5027637;28;20203;-72
2022/10/31 10:23:42;;;;;;;8.75;5.47;;;;;;;20.85;37.19;95500.91;5027677;28;20186;-73
2022/10/31 10:26:20;;;;;;;8.30;4.90;;;;;;;21.08;37.01;95500.53;5031375;28;20193;-72
2022/10/31 10:29:01;;;;;;;5.15;4.10;;;;;;;21.18;35.89;95500.13;5028061;28;20188;-72
2022/10/31 10:31:41;;;;;;;6.63;4.50;;;;;;;21.26;35.46;95491.88;5027032;28;20174;-73
2022/10/31 10:34:27;;;;;;;9.38;4.80;;;;;;;21.25;36.25;95484.88;5025462;28;20174;-68
2022/10/31 10:37:04;;;;;;;8.32;4.75;;;;;;;21.23;36.34;95481.59;5027086;28;20393;-70
2022/10/31 10:39:43;;;;;;;9.88;5.22;;;;;;;21.52;35.92;95481.19;5028882;28;21009;-69
2022/10/31 10:47:52;;;;;;;6.10;3.75;;;;;;;22.00;34.28;95470.16;5019820;28;20708;-69
2022/10/31 10:50:32;;;;;;;6.63;3.97;;;;;;;22.15;33.73;95472.53;5021758;28;20189;-69
2022/10/31 10:53:07;;;;;;;7.85;3.80;;;;;;;22.22;33.92;95472.56;5028098;28;20209;-69
2022/10/31 10:55:46;;;;;;;7.22;3.70;;;;;;;22.26;33.92;95473.75;5024441;28;20555;-69
2022/10/31 10:58:12;;;;;;;8.25;3.58;;;;;;;22.43;33.23;95472.25;5028187;28;20491;-69
2022/10/31 11:00:49;;;;;;;7.00;4.35;;;;;;;22.32;33.17;95474.75;5027689;28;20202;-69
2022/10/31 11:03:17;;;;;;;6.95;3.72;;;;;;;22.40;32.88;95472.69;5028929;28;20673;-69
2022/10/31 11:05:52;;;;;;;5.78;3.85;;;;;;;22.60;32.54;95469.06;5028194;28;20560;-69
2022/10/31 11:08:35;;;;;;;6.93;3.97;;;;;;;22.96;31.82;95460.41;5021876;28;20186;-69
2022/10/31 11:11:18;;;;;;;7.07;3.28;;;;;;;22.84;31.80;95468.25;5028195;28;20535;-70
2022/10/31 11:13:47;;;;;;;7.28;3.47;;;;;;;22.91;31.47;95465.56;5026911;28;20186;-69
2022/10/31 11:16:25;;;;;;;6.78;3.10;;;;;;;22.85;31.80;95458.34;5024863;28;20186;-67
2022/10/31 11:18:51;;;;;;;5.60;3.40;;;;;;;23.18;31.80;95458.16;5027094;28;20206;-70
2022/10/31 11:21:29;;;;;;;7.53;3.30;;;;;;;23.50;30.65;95452.69;5025756;28;20642;-71
2022/10/31 11:24:09;;;;;;;4.32;3.28;;;;;;;23.59;30.70;95454.03;5026784;28;20542;-70
2022/10/31 11:26:37;;;;;;;7.25;3.67;;;;;;;23.76;30.40;95457.81;5028313;28;20182;-67
2022/10/31 11:29:05;;;;;;;6.75;3.90;;;;;;;23.93;30.09;95451.84;5023708;28;20186;-69
2022/10/31 11:31:34;;;;;;;6.35;3.53;;;;;;;24.01;29.57;95448.03;5018515;28;20185;-70
2022/10/31 11:34:12;;;;;;;6.55;3.88;;;;;;;24.26;29.99;95443.38;5040576;28;20268;-73
2022/10/31 11:36:42;;;;;;;11.45;3.65;;;;;;;24.52;28.60;95431.47;5022981;28;20213;-73
2022/10/31 11:39:20;;;;;;;8.50;3.60;;;;;;;25.36;28.02;95431.38;5029679;28;20907;-71
2022/10/31 11:41:46;;;;;;;8.63;3.60;;;;;;;33.01;18.58;95432.94;5027409;28;20206;-72
2022/10/31 11:44:16;;;;;;;5.82;3.40;;;;;;;38.48;12.94;95436.97;5026594;28;20224;-71
2022/10/31 11:46:46;;;;;;;5.97;3.60;;;;;;;41.52;10.49;95437.19;5024325;28;20637;-69